createdAt,value
2019-03-30T00:01:13.834Z,102591.50
2019-03-30T00:03:41.693Z,102596.74
2019-03-30T00:06:09.458Z,102597.59
2019-03-30T00:08:37.233Z,102596.27
2019-03-30T00:11:05.043Z,102591.91
2019-03-30T00:13:32.830Z,102590.59
2019-03-30T00:16:00.642Z,102583.61
2019-03-30T00:18:28.441Z,102576.16
2019-03-30T00:20:56.239Z,102575.29
2019-03-30T00:23:24.013Z,102567.82
2019-03-30T00:25:51.826Z,102562.56
2019-03-30T00:28:19.609Z,102566.91
2019-03-30T00:30:47.402Z,102561.66
2019-03-30T00:33:15.261Z,102559.46
2019-03-30T00:35:43.190Z,102559.91
2019-03-30T00:38:10.990Z,102559.48
2019-03-30T00:40:38.792Z,102559.04
2019-03-30T00:43:06.562Z,102554.63
2019-03-30T00:45:34.393Z,102555.52
2019-03-30T00:48:02.152Z,102544.59
2019-03-30T00:50:30.078Z,102546.33
2019-03-30T00:52:57.890Z,102543.70
2019-03-30T00:55:25.664Z,102543.69
2019-03-30T00:57:53.457Z,102542.40
2019-03-30T01:00:21.235Z,102546.76
2019-03-30T01:02:49.041Z,102545.44
2019-03-30T01:05:16.874Z,102543.69
2019-03-30T01:07:44.660Z,102539.77
2019-03-30T01:10:12.443Z,102542.81
2019-03-30T01:12:40.259Z,102545.43
2019-03-30T01:15:08.369Z,102542.80
2019-03-30T01:17:36.134Z,102541.06
2019-03-30T01:20:04.201Z,102539.31
2019-03-30T01:22:31.983Z,102528.80
2019-03-30T01:24:59.790Z,102526.61
2019-03-30T01:27:27.607Z,102525.29
2019-03-30T01:29:55.370Z,102523.98
2019-03-30T01:32:23.224Z,102516.98
2019-03-30T01:34:51.023Z,102516.09
2019-03-30T01:37:18.789Z,102515.22
2019-03-30T01:39:46.608Z,102518.29
2019-03-30T01:42:14.377Z,102515.23
2019-03-30T01:44:43.478Z,102515.23
2019-03-30T01:47:11.251Z,102509.08
2019-03-30T01:49:39.027Z,102509.09
2019-03-30T01:52:06.853Z,102508.23
2019-03-30T01:54:34.746Z,102506.02
2019-03-30T01:57:02.512Z,102502.97
2019-03-30T01:59:30.303Z,102495.52
2019-03-30T02:01:58.066Z,102496.39
2019-03-30T02:04:25.847Z,102496.39
2019-03-30T02:06:53.646Z,102492.45
2019-03-30T02:09:21.393Z,102495.53
2019-03-30T02:11:49.207Z,102495.53
2019-03-30T02:14:16.982Z,102487.19
2019-03-30T02:16:44.787Z,102490.27
2019-03-30T02:19:12.557Z,102486.77
2019-03-30T02:21:40.461Z,102481.50
2019-03-30T02:24:08.390Z,102477.56
2019-03-30T02:26:36.136Z,102477.59
2019-03-30T02:29:03.918Z,102476.70
2019-03-30T02:31:31.844Z,102473.19
2019-03-30T02:33:59.654Z,102469.70
2019-03-30T02:36:27.402Z,102469.70
2019-03-30T02:38:55.215Z,102460.08
2019-03-30T02:41:23.005Z,102460.08
2019-03-30T02:43:50.775Z,102453.52
2019-03-30T02:46:18.584Z,102451.33
2019-03-30T02:48:46.367Z,102451.31
2019-03-30T02:51:14.199Z,102449.56
2019-03-30T02:53:41.986Z,102452.19
2019-03-30T02:56:09.912Z,102443.44
2019-03-30T02:58:37.702Z,102444.75
2019-03-30T03:01:05.479Z,102439.06
2019-03-30T03:03:33.274Z,102436.87
2019-03-30T03:06:01.066Z,102436.42
2019-03-30T03:08:28.861Z,102434.68
2019-03-30T03:10:56.660Z,102440.39
2019-03-30T03:13:24.427Z,102430.31
2019-03-30T03:15:52.237Z,102432.05
2019-03-30T03:18:20.023Z,102428.98
2019-03-30T03:21:06.116Z,102428.55
2019-03-30T03:23:17.572Z,102424.19
2019-03-30T03:25:45.337Z,102424.61
2019-03-30T03:28:13.132Z,102420.26
2019-03-30T03:30:40.961Z,102415.42
2019-03-30T03:33:08.761Z,102413.68
2019-03-30T03:35:36.530Z,102412.37
2019-03-30T03:38:04.366Z,102410.63
2019-03-30T03:40:32.146Z,102401.88
2019-03-30T03:42:59.935Z,102405.38
2019-03-30T03:45:27.787Z,102404.48
2019-03-30T03:47:55.559Z,102399.23
2019-03-30T03:50:40.837Z,102397.50
2019-03-30T03:53:08.674Z,102400.55
2019-03-30T03:55:36.772Z,102397.08
2019-03-30T03:58:05.154Z,102397.52
2019-03-30T04:00:32.936Z,102393.13
2019-03-30T04:03:00.871Z,102390.08
2019-03-30T04:05:28.641Z,102387.45
2019-03-30T04:07:56.425Z,102387.42
2019-03-30T04:10:24.230Z,102386.14
2019-03-30T04:12:51.992Z,102380.89
2019-03-30T04:15:25.956Z,102373.45
2019-03-30T04:17:53.753Z,102373.00
2019-03-30T04:20:23.210Z,102372.56
2019-03-30T04:22:51.306Z,102369.94
2019-03-30T04:25:19.074Z,102366.44
2019-03-30T04:27:46.877Z,102372.56
2019-03-30T04:30:14.651Z,102366.01
2019-03-30T04:32:42.484Z,102355.95
2019-03-30T04:35:10.274Z,102358.58
2019-03-30T04:37:38.087Z,102348.11
2019-03-30T04:40:05.968Z,102345.49
2019-03-30T04:42:33.761Z,102340.23
2019-03-30T04:45:01.556Z,102344.19
2019-03-30T04:47:29.334Z,102342.89
2019-03-30T04:49:57.139Z,102333.70
2019-03-30T04:52:25.246Z,102328.03
2019-03-30T04:54:53.052Z,102324.95
2019-03-30T04:57:23.586Z,102318.41
2019-03-30T04:59:51.385Z,102310.94
2019-03-30T05:02:19.165Z,102312.26
2019-03-30T05:04:46.944Z,102311.84
2019-03-30T05:07:14.747Z,102309.20
2019-03-30T05:09:42.535Z,102304.81
2019-03-30T05:12:10.331Z,102300.89
2019-03-30T05:14:38.090Z,102295.21
2019-03-30T05:17:06.043Z,102302.62
2019-03-30T05:19:33.828Z,102303.95
2019-03-30T05:22:12.151Z,102299.55
2019-03-30T05:24:31.294Z,102300.44
2019-03-30T05:26:59.066Z,102298.70
2019-03-30T05:29:27.015Z,102296.92
2019-03-30T05:31:54.781Z,102300.44
2019-03-30T05:34:22.527Z,102300.01
2019-03-30T05:36:50.433Z,102300.89
2019-03-30T05:39:18.195Z,102294.77
2019-03-30T05:41:45.969Z,102295.62
2019-03-30T05:44:13.792Z,102292.11
2019-03-30T05:46:41.594Z,102291.69
2019-03-30T05:49:09.441Z,102291.23
2019-03-30T05:51:37.275Z,102293.00
2019-03-30T05:54:05.060Z,102293.88
2019-03-30T05:56:32.940Z,102293.42
2019-03-30T05:59:00.705Z,102299.11
2019-03-30T06:01:28.525Z,102294.75
2019-03-30T06:03:56.299Z,102297.34
2019-03-30T06:06:24.067Z,102295.60
2019-03-30T06:08:51.861Z,102293.86
2019-03-30T06:11:19.630Z,102289.92
2019-03-30T06:13:47.476Z,102288.16
2019-03-30T06:16:15.238Z,102290.36
2019-03-30T06:18:43.014Z,102289.05
2019-03-30T06:21:10.822Z,102286.84
2019-03-30T06:23:38.583Z,102280.28
2019-03-30T06:26:06.434Z,102274.14
2019-03-30T06:28:34.296Z,102278.12
2019-03-30T06:34:19.454Z,102274.58
2019-03-30T06:36:47.496Z,102273.30
2019-03-30T06:39:15.582Z,102270.67
2019-03-30T06:41:43.638Z,102268.47
2019-03-30T06:44:11.685Z,102264.53
2019-03-30T06:46:39.844Z,102265.39
2019-03-30T06:49:08.007Z,102268.44
2019-03-30T06:51:36.019Z,102268.90
2019-03-30T06:54:04.119Z,102265.81
2019-03-30T06:56:32.190Z,102263.19
2019-03-30T06:59:00.284Z,102267.13
2019-03-30T07:01:28.333Z,102265.39
2019-03-30T07:03:56.377Z,102264.04
2019-03-30T07:06:24.462Z,102264.92
2019-03-30T07:08:53.727Z,102264.47
2019-03-30T07:11:22.179Z,102270.61
2019-03-30T07:13:50.365Z,102267.98
2019-03-30T07:16:18.382Z,102265.77
2019-03-30T07:18:46.278Z,102262.26
2019-03-30T07:21:14.476Z,102267.94
2019-03-30T07:23:42.527Z,102268.40
2019-03-30T07:26:10.575Z,102268.36
2019-03-30T07:28:38.663Z,102266.20
2019-03-30T07:31:06.739Z,102274.50
2019-03-30T07:33:34.816Z,102275.35
2019-03-30T07:36:02.880Z,102273.16
2019-03-30T07:38:30.922Z,102262.64
2019-03-30T07:40:59.103Z,102263.06
2019-03-30T07:43:27.162Z,102260.86
2019-03-30T07:45:55.200Z,102257.81
2019-03-30T07:48:23.349Z,102262.63
2019-03-30T07:50:51.373Z,102260.43
2019-03-30T07:53:26.281Z,102256.45
2019-03-30T07:55:49.403Z,102244.20
2019-03-30T07:58:17.505Z,102241.98
2019-03-30T08:00:45.552Z,102240.67
2019-03-30T08:03:13.595Z,102237.16
2019-03-30T08:05:41.692Z,102231.47
2019-03-30T08:08:09.773Z,102235.83
2019-03-30T08:10:37.839Z,102227.91
2019-03-30T08:13:05.900Z,102223.96
2019-03-30T08:15:33.986Z,102226.59
2019-03-30T08:18:02.028Z,102227.00
2019-03-30T08:20:30.096Z,102222.17
2019-03-30T08:22:58.142Z,102225.25
2019-03-30T08:25:26.194Z,102231.36
2019-03-30T08:27:54.252Z,102229.61
2019-03-30T08:30:22.309Z,102227.84
2019-03-30T08:32:50.400Z,102230.88
2019-03-30T08:35:18.440Z,102229.56
2019-03-30T08:37:46.501Z,102227.81
2019-03-30T08:40:14.590Z,102227.34
2019-03-30T08:42:42.649Z,102219.06
2019-03-30T08:45:10.833Z,102224.27
2019-03-30T08:47:38.888Z,102224.69
2019-03-30T08:50:07.737Z,102223.84
2019-03-30T08:52:35.826Z,102219.42
2019-03-30T08:55:04.284Z,102212.41
2019-03-30T08:57:32.315Z,102211.52
2019-03-30T09:00:00.392Z,102210.63
2019-03-30T09:02:28.537Z,102211.04
2019-03-30T09:04:56.589Z,102209.71
2019-03-30T09:07:24.612Z,102200.45
2019-03-30T09:09:52.722Z,102203.97
2019-03-30T09:12:20.742Z,102199.55
2019-03-30T09:14:48.758Z,102198.69
2019-03-30T09:17:16.831Z,102194.27
2019-03-30T09:19:44.870Z,102192.94
2019-03-30T09:22:12.959Z,102189.84
2019-03-30T09:24:40.983Z,102184.14
2019-03-30T09:27:09.263Z,102191.56
2019-03-30T09:29:37.321Z,102185.39
2019-03-30T09:32:14.284Z,102181.86
2019-03-30T09:34:35.362Z,102175.69
2019-03-30T09:37:03.376Z,102174.77
2019-03-30T09:39:31.438Z,102176.50
2019-03-30T09:41:59.532Z,102178.69
2019-03-30T09:44:27.564Z,102175.59
2019-03-30T09:46:55.620Z,102176.47
2019-03-30T09:49:23.697Z,102171.62
2019-03-30T09:51:51.813Z,102163.71
2019-03-30T09:54:24.085Z,102157.55
2019-03-30T09:56:49.781Z,102154.90
2019-03-30T09:59:17.897Z,102151.36
2019-03-30T10:01:45.954Z,102149.56
2019-03-30T10:04:14.011Z,102133.33
2019-03-30T10:06:42.101Z,102132.85
2019-03-30T10:09:10.260Z,102137.21
2019-03-30T10:11:38.397Z,102134.15
2019-03-30T10:14:06.452Z,102136.75
2019-03-30T10:16:34.628Z,102139.81
2019-03-30T10:19:02.676Z,102130.11
2019-03-30T10:21:30.723Z,102128.36
2019-03-30T10:23:58.804Z,102127.44
2019-03-30T10:26:26.849Z,102125.22
2019-03-30T10:28:54.921Z,102126.48
2019-03-30T10:31:23.114Z,102125.13
2019-03-30T10:33:51.136Z,102125.95
2019-03-30T10:36:19.188Z,102120.64
2019-03-30T10:38:47.265Z,102114.44
2019-03-30T10:41:15.294Z,102113.53
2019-03-30T10:43:43.369Z,102109.55
2019-03-30T10:46:11.433Z,102107.31
2019-03-30T10:48:39.536Z,102106.83
2019-03-30T10:51:07.607Z,102104.59
2019-03-30T10:53:35.932Z,102100.13
2019-03-30T10:56:04.034Z,102089.95
2019-03-30T10:58:32.151Z,102089.38
2019-03-30T11:01:00.235Z,102093.63
2019-03-30T11:03:28.302Z,102089.22
2019-03-30T11:05:56.476Z,102088.73
2019-03-30T11:08:24.593Z,102090.02
2019-03-30T11:10:52.608Z,102085.14
2019-03-30T11:13:20.735Z,102077.14
2019-03-30T11:15:48.747Z,102087.60
2019-03-30T11:18:16.931Z,102079.62
2019-03-30T11:20:44.944Z,102071.67
2019-03-30T11:23:12.966Z,102068.58
2019-03-30T11:25:41.033Z,102066.75
2019-03-30T11:28:09.049Z,102068.48
2019-03-30T11:30:37.107Z,102064.89
2019-03-30T11:33:05.134Z,102061.24
2019-03-30T11:35:33.197Z,102058.48
2019-03-30T11:38:01.207Z,102056.60
2019-03-30T11:40:29.265Z,102059.99
2019-03-30T11:42:57.271Z,102047.99
2019-03-30T11:45:25.330Z,102044.40
2019-03-30T11:47:53.339Z,102049.20
2019-03-30T11:50:21.373Z,102037.30
2019-03-30T11:52:49.408Z,102040.73
2019-03-30T11:55:22.001Z,102038.52
2019-03-30T11:57:47.393Z,102035.82
2019-03-30T12:00:15.495Z,102033.98
2019-03-30T12:02:43.567Z,102027.41
2019-03-30T12:05:11.613Z,102024.00
2019-03-30T12:07:39.672Z,102021.38
2019-03-30T12:10:07.751Z,102018.33
2019-03-30T12:12:37.556Z,102019.64
2019-03-30T12:15:06.024Z,102015.25
2019-03-30T12:17:34.079Z,102013.85
2019-03-30T12:20:02.115Z,102012.09
2019-03-30T12:22:30.160Z,102005.11
2019-03-30T12:24:58.172Z,102009.09
2019-03-30T12:27:26.344Z,102000.77
2019-03-30T12:29:54.398Z,101998.97
2019-03-30T12:32:22.431Z,101993.15
2019-03-30T12:34:50.486Z,101990.84
2019-03-30T12:37:18.639Z,101990.23
2019-03-30T12:39:46.664Z,101986.19
2019-03-30T12:42:14.686Z,101982.55
2019-03-30T12:44:42.749Z,101980.70
2019-03-30T12:47:10.910Z,101977.48
2019-03-30T12:49:38.933Z,101972.64
2019-03-30T12:52:07.047Z,101975.84
2019-03-30T12:54:35.075Z,101977.19
2019-03-30T12:57:03.092Z,101965.71
2019-03-30T12:59:31.134Z,101966.59
2019-03-30T13:01:59.155Z,101967.77
2019-03-30T13:04:27.211Z,101964.28
2019-03-30T13:06:55.232Z,101965.69
2019-03-30T13:09:23.285Z,101963.95
2019-03-30T13:11:51.301Z,101956.88
2019-03-30T13:14:19.356Z,101957.67
2019-03-30T13:16:47.397Z,101951.36
2019-03-30T13:19:15.421Z,101954.41
2019-03-30T13:21:52.507Z,101949.57
2019-03-30T13:24:13.546Z,101949.89
2019-03-30T13:26:41.557Z,101948.06
2019-03-30T13:29:09.577Z,101942.59
2019-03-30T13:31:37.622Z,101949.07
2019-03-30T13:34:05.629Z,101944.09
2019-03-30T13:36:40.812Z,101940.92
2019-03-30T13:39:08.884Z,101945.44
2019-03-30T13:41:36.943Z,101945.06
2019-03-30T13:44:05.049Z,101939.61
2019-03-30T13:46:33.098Z,101942.66
2019-03-30T13:49:01.237Z,101940.97
2019-03-30T13:51:29.290Z,101936.39
2019-03-30T13:53:57.295Z,101932.11
2019-03-30T13:56:25.350Z,101940.03
2019-03-30T13:58:53.369Z,101940.99
2019-03-30T14:01:21.495Z,101938.59
2019-03-30T14:03:49.539Z,101929.69
2019-03-30T14:06:17.588Z,101931.41
2019-03-30T14:08:45.815Z,101927.55
2019-03-30T14:11:13.978Z,101928.02
2019-03-30T14:13:41.984Z,101920.30
2019-03-30T14:16:10.070Z,101917.59
2019-03-30T14:18:38.133Z,101912.54
2019-03-30T14:21:06.185Z,101919.78
2019-03-30T14:23:34.276Z,101906.25
2019-03-30T14:26:02.271Z,101909.05
2019-03-30T14:28:30.447Z,101906.11
2019-03-30T14:30:58.456Z,101904.00
2019-03-30T14:33:26.470Z,101894.72
2019-03-30T14:35:54.519Z,101903.98
2019-03-30T14:38:22.548Z,101895.81
2019-03-30T14:40:50.598Z,101895.70
2019-03-30T14:43:18.622Z,101886.99
2019-03-30T14:45:46.667Z,101887.45
2019-03-30T14:48:14.712Z,101592.47
2019-03-30T14:50:42.760Z,101879.18
2019-03-30T14:53:10.908Z,101881.08
2019-03-30T14:55:39.678Z,101881.09
2019-03-30T14:58:07.955Z,101870.25
2019-03-30T15:00:36.187Z,101874.50
2019-03-30T15:03:04.292Z,101868.91
2019-03-30T15:05:32.300Z,101868.92
2019-03-30T15:08:00.374Z,101868.23
2019-03-30T15:10:28.389Z,101864.98
2019-03-30T15:12:56.475Z,101863.41
2019-03-30T15:15:24.586Z,101857.95
2019-03-30T15:17:52.603Z,101857.95
2019-03-30T15:20:20.646Z,101857.22
2019-03-30T15:22:48.717Z,101859.10
2019-03-30T15:25:16.759Z,101853.84
2019-03-30T15:27:44.809Z,101856.34
2019-03-30T15:30:12.857Z,101855.24
2019-03-30T15:32:40.879Z,101847.11
2019-03-30T15:35:08.951Z,101848.89
2019-03-30T15:37:36.980Z,101844.00
2019-03-30T15:40:05.128Z,101842.96
2019-03-30T15:42:33.148Z,101845.69
2019-03-30T15:45:01.301Z,101843.13
2019-03-30T15:47:29.341Z,101850.42
2019-03-30T15:49:57.378Z,101852.02
2019-03-30T15:52:25.486Z,101855.91
2019-03-30T15:54:53.541Z,101852.55
2019-03-30T15:57:21.553Z,101858.07
2019-03-30T15:59:49.618Z,101867.57
2019-03-30T16:02:17.630Z,101868.28
2019-03-30T16:04:45.728Z,101874.73
2019-03-30T16:07:13.771Z,101878.27
2019-03-30T16:09:41.800Z,101880.95
2019-03-30T16:12:09.881Z,101880.20
2019-03-30T16:14:37.896Z,101878.69
2019-03-30T16:17:05.953Z,101891.72
2019-03-30T16:19:34.057Z,101884.51
2019-03-30T16:22:02.143Z,101883.33
2019-03-30T16:24:30.367Z,101888.56
2019-03-30T16:26:58.462Z,101891.84
2019-03-30T16:29:26.534Z,101891.19
2019-03-30T16:31:54.577Z,101896.73
2019-03-30T16:34:22.647Z,101885.91
2019-03-30T16:36:50.732Z,101889.46
2019-03-30T16:39:18.808Z,101889.68
2019-03-30T16:41:46.875Z,101894.30
2019-03-30T16:44:14.934Z,101892.31
2019-03-30T16:46:43.030Z,101897.87
2019-03-30T16:49:11.108Z,101895.39
2019-03-30T16:51:39.180Z,101895.43
2019-03-30T16:54:07.304Z,101897.66
2019-03-30T16:56:35.445Z,101900.34
2019-03-30T16:59:03.948Z,101903.55
2019-03-30T17:01:31.974Z,101910.80
2019-03-30T17:04:00.066Z,101909.33
2019-03-30T17:06:28.090Z,101905.14
2019-03-30T17:08:56.123Z,101900.97
2019-03-30T17:11:24.190Z,101908.59
2019-03-30T17:13:52.403Z,101907.81
2019-03-30T17:16:20.421Z,101905.61
2019-03-30T17:18:48.446Z,101903.03
2019-03-30T17:21:16.489Z,101901.77
2019-03-30T17:23:44.591Z,101906.27
2019-03-30T17:26:12.623Z,101905.47
2019-03-30T17:28:40.684Z,101904.33
2019-03-30T17:31:08.739Z,101898.28
2019-03-30T17:33:36.800Z,101903.23
2019-03-30T17:36:04.838Z,101902.94
2019-03-30T17:38:33.072Z,101906.19
2019-03-30T17:41:01.195Z,101908.93
2019-03-30T17:43:29.226Z,101911.70
2019-03-30T17:45:57.278Z,101917.06
2019-03-30T17:48:25.345Z,101920.72
2019-03-30T17:50:53.406Z,101926.55
2019-03-30T17:53:21.483Z,101928.85
2019-03-30T17:55:49.535Z,101936.01
2019-03-30T17:58:17.697Z,101929.57
2019-03-30T18:00:46.842Z,101935.33
2019-03-30T18:03:14.871Z,101937.58
2019-03-30T18:05:42.928Z,101943.84
2019-03-30T18:08:10.968Z,101943.47
2019-03-30T18:10:39.008Z,101946.17
2019-03-30T18:13:07.070Z,101945.81
2019-03-30T18:15:35.126Z,101942.81
2019-03-30T18:18:03.191Z,101948.59
2019-03-30T18:20:31.258Z,101953.48
2019-03-30T18:22:59.298Z,101952.68
2019-03-30T18:25:27.363Z,101952.28
2019-03-30T18:27:55.608Z,101957.59
2019-03-30T18:30:34.350Z,101966.86
2019-03-30T18:33:02.473Z,101962.98
2019-03-30T18:35:30.607Z,101951.19
2019-03-30T18:37:58.628Z,101957.38
2019-03-30T18:40:28.737Z,101972.35
2019-03-30T18:42:56.806Z,101973.28
2019-03-30T18:45:26.160Z,101982.09
2019-03-30T18:47:54.977Z,101986.05
2019-03-30T18:50:23.069Z,101982.14
2019-03-30T18:52:51.100Z,101986.13
2019-03-30T18:55:23.094Z,101983.51
2019-03-30T18:57:51.164Z,101982.26
2019-03-30T19:00:25.724Z,101987.97
2019-03-30T19:02:53.754Z,101992.83
2019-03-30T19:05:21.854Z,101989.34
2019-03-30T19:07:49.868Z,101989.37
2019-03-30T19:10:17.914Z,102000.81
2019-03-30T19:12:46.014Z,101999.95
2019-03-30T19:15:14.041Z,102000.86
2019-03-30T19:17:42.102Z,101997.39
2019-03-30T19:20:10.177Z,102000.47
2019-03-30T19:22:38.252Z,102007.95
2019-03-30T19:25:06.409Z,102011.90
2019-03-30T19:27:34.475Z,102016.75
2019-03-30T19:30:02.510Z,102019.41
2019-03-30T19:32:30.590Z,102018.98
2019-03-30T19:34:58.664Z,102018.57
2019-03-30T19:37:26.740Z,102016.39
2019-03-30T19:39:54.820Z,102016.87
2019-03-30T19:42:22.891Z,102016.89
2019-03-30T19:44:50.937Z,102018.67
2019-03-30T19:47:18.968Z,102017.79
2019-03-30T19:49:47.025Z,102016.95
2019-03-30T19:52:15.081Z,102014.32
2019-03-30T19:54:43.134Z,102012.55
2019-03-30T19:57:11.171Z,102012.14
2019-03-30T19:59:39.302Z,102006.90
2019-03-30T20:02:07.302Z,102006.08
2019-03-30T20:04:35.345Z,102011.82
2019-03-30T20:07:03.431Z,102017.09
2019-03-30T20:09:31.592Z,102018.85
2019-03-30T20:11:59.658Z,102024.11
2019-03-30T20:14:27.688Z,102019.75
2019-03-30T20:16:55.772Z,102019.75
2019-03-30T20:19:23.801Z,102021.96
2019-03-30T20:21:51.892Z,102021.55
2019-03-30T20:24:19.901Z,102023.73
2019-03-30T20:26:47.991Z,102014.57
2019-03-30T20:29:25.293Z,102017.23
2019-03-30T20:31:45.959Z,102015.91
2019-03-30T20:34:14.024Z,102013.72
2019-03-30T20:36:42.265Z,102022.51
2019-03-30T20:39:10.283Z,102021.66
2019-03-30T20:41:38.343Z,102029.09
2019-03-30T20:44:06.880Z,102026.94
2019-03-30T20:46:34.917Z,102034.83
2019-03-30T20:49:02.981Z,102034.42
2019-03-30T20:51:31.035Z,102030.50
2019-03-30T20:53:59.095Z,102031.84
2019-03-30T20:56:27.151Z,102034.11
2019-03-30T20:58:55.209Z,102034.98
2019-03-30T21:01:23.222Z,102031.08
2019-03-30T21:03:51.291Z,102034.13
2019-03-30T21:06:19.335Z,102031.48
2019-03-30T21:08:47.357Z,102035.44
2019-03-30T21:11:15.414Z,102037.24
2019-03-30T21:13:43.443Z,102034.20
2019-03-30T21:16:11.490Z,102032.91
2019-03-30T21:18:39.524Z,102035.53
2019-03-30T21:21:09.305Z,102040.80
2019-03-30T21:23:37.505Z,102036.91
2019-03-30T21:26:05.678Z,102039.53
2019-03-30T21:28:33.685Z,102031.19
2019-03-30T21:31:01.795Z,102040.88
2019-03-30T21:33:29.852Z,102039.14
2019-03-30T21:35:57.891Z,102047.03
2019-03-30T21:38:25.945Z,102049.66
2019-03-30T21:40:54.099Z,102044.00
2019-03-30T21:43:22.219Z,102051.00
2019-03-30T21:45:50.235Z,102044.42
2019-03-30T21:48:18.288Z,102044.00
2019-03-30T21:50:46.344Z,102046.20
2019-03-30T21:53:14.432Z,102041.38
2019-03-30T21:55:42.485Z,102043.16
2019-03-30T21:58:10.536Z,102050.63
2019-03-30T22:00:39.010Z,102044.06
2019-03-30T22:03:07.132Z,102049.33
2019-03-30T22:05:35.317Z,102051.53
2019-03-30T22:08:03.945Z,102058.06
2019-03-30T22:10:31.998Z,102060.69
2019-03-30T22:13:00.027Z,102063.37
2019-03-30T22:15:28.286Z,102070.37
2019-03-30T22:17:56.332Z,102065.58
2019-03-30T22:20:24.379Z,102066.91
2019-03-30T22:22:52.445Z,102052.52
2019-03-30T22:25:20.517Z,102070.00
2019-03-30T22:27:48.564Z,102070.02
2019-03-30T22:30:24.523Z,102078.74
2019-03-30T22:32:46.549Z,102077.01
2019-03-30T22:35:14.559Z,102076.16
2019-03-30T22:37:42.616Z,102073.55
2019-03-30T22:40:10.720Z,102079.23
2019-03-30T22:42:38.834Z,102081.00
2019-03-30T22:45:06.841Z,102083.17
2019-03-30T22:47:34.905Z,102077.49
2019-03-30T22:50:02.956Z,102081.44
2019-03-30T22:52:31.070Z,102079.23
2019-03-30T22:54:59.091Z,102083.21
2019-03-30T22:57:27.161Z,102084.52
2019-03-30T22:59:55.206Z,102088.00
2019-03-30T23:02:23.241Z,102087.16
2019-03-30T23:04:51.292Z,102098.09
2019-03-30T23:07:19.324Z,102094.20
2019-03-30T23:09:47.507Z,102100.72
2019-03-30T23:12:15.517Z,102106.86
2019-03-30T23:14:43.577Z,102101.19
2019-03-30T23:17:11.591Z,102107.29
2019-03-30T23:19:39.665Z,102105.55
2019-03-30T23:22:07.702Z,102111.22
2019-03-30T23:24:35.863Z,102113.00
2019-03-30T23:27:03.908Z,102106.86
2019-03-30T23:29:31.969Z,102114.33
2019-03-30T23:32:00.043Z,102102.08
2019-03-30T23:34:28.077Z,102108.19
2019-03-30T23:36:56.140Z,102112.59
2019-03-30T23:39:24.200Z,102106.88
2019-03-30T23:41:52.291Z,102110.81
2019-03-30T23:44:20.322Z,102109.08
2019-03-30T23:46:48.405Z,102105.60
2019-03-30T23:49:16.442Z,102105.60
2019-03-30T23:51:44.540Z,102115.23
2019-03-30T23:54:13.918Z,102111.75
2019-03-30T23:56:41.986Z,102119.62
2019-03-30T23:59:10.014Z,102120.94
